createdAt,value
2019-06-07T00:03:26.643Z,22.65
2019-06-07T00:08:28.665Z,14.35
2019-06-07T00:13:30.455Z,13.30
2019-06-07T00:18:36.831Z,14.20
2019-06-07T00:23:42.076Z,12.13
2019-06-07T00:28:47.580Z,12.28
2019-06-07T00:33:52.830Z,11.48
2019-06-07T00:38:58.372Z,12.85
2019-06-07T00:44:03.880Z,13.58
2019-06-07T00:49:09.311Z,12.25
2019-06-07T00:54:17.078Z,12.75
2019-06-07T00:59:28.426Z,14.95
2019-06-07T01:04:28.458Z,15.50
2019-06-07T01:09:33.698Z,15.28
2019-06-07T01:14:38.986Z,14.85
2019-06-07T01:19:44.476Z,14.70
2019-06-07T01:24:50.127Z,13.18
2019-06-07T01:29:55.334Z,12.37
2019-06-07T01:35:00.976Z,10.65
2019-06-07T01:40:06.752Z,11.97
2019-06-07T01:45:12.906Z,12.82
2019-06-07T01:50:22.516Z,13.30
2019-06-07T01:55:29.169Z,14.50
2019-06-07T02:00:32.992Z,15.28
2019-06-07T02:05:38.711Z,13.95
2019-06-07T02:10:46.729Z,14.85
2019-06-07T02:15:52.388Z,14.93
2019-06-07T02:20:58.047Z,13.58
2019-06-07T02:26:04.542Z,13.90
2019-06-07T02:31:09.848Z,15.25
2019-06-07T02:36:15.185Z,16.57
2019-06-07T02:41:22.929Z,15.18
2019-06-07T02:46:36.376Z,15.85
2019-06-07T02:51:41.112Z,15.72
2019-06-07T02:56:56.798Z,15.83
2019-06-07T03:01:48.759Z,15.85
2019-06-07T03:06:56.304Z,14.28
2019-06-07T03:12:03.200Z,14.38
2019-06-07T03:17:20.967Z,15.60
2019-06-07T03:22:26.748Z,14.85
2019-06-07T03:27:41.349Z,16.07
2019-06-07T03:32:47.206Z,16.27
2019-06-07T03:37:49.005Z,26.75
2019-06-07T03:42:54.612Z,23.55
2019-06-07T03:48:00.267Z,19.57
2019-06-07T03:53:05.719Z,17.48
2019-06-07T03:58:31.240Z,18.00
2019-06-07T04:03:33.640Z,17.45
2019-06-07T04:08:26.001Z,16.62
2019-06-07T04:13:36.746Z,17.27
2019-06-07T04:18:40.834Z,17.27
2019-06-07T04:23:45.924Z,16.93
2019-06-07T04:33:58.281Z,16.02
2019-06-07T04:39:03.890Z,18.65
2019-06-07T04:44:10.132Z,16.95
2019-06-07T04:49:17.468Z,16.20
2019-06-07T04:54:22.713Z,16.62
2019-06-07T05:00:04.277Z,15.50
2019-06-07T05:04:36.541Z,15.80
2019-06-07T05:09:43.339Z,15.38
2019-06-07T05:14:49.041Z,15.23
2019-06-07T05:19:54.284Z,14.25
2019-06-07T05:24:59.540Z,15.28
2019-06-07T05:30:13.702Z,15.15
2019-06-07T05:35:12.886Z,15.38
2019-06-07T05:40:22.821Z,16.67
2019-06-07T05:45:35.791Z,15.32
2019-06-07T05:50:49.981Z,15.20
2019-06-07T05:55:48.660Z,14.30
2019-06-07T06:00:54.027Z,15.38
2019-06-07T06:05:59.278Z,15.15
2019-06-07T06:11:04.515Z,14.98
2019-06-07T06:16:10.211Z,15.48
2019-06-07T06:21:19.733Z,15.48
2019-06-07T06:26:22.575Z,15.15
2019-06-07T06:31:28.066Z,14.73
2019-06-07T06:36:33.311Z,15.38
2019-06-07T06:41:50.681Z,15.93
2019-06-07T06:46:50.207Z,15.35
2019-06-07T06:51:53.869Z,14.75
2019-06-07T06:57:17.800Z,15.32
2019-06-07T07:02:07.793Z,15.90
2019-06-07T07:07:13.052Z,16.30
2019-06-07T07:12:18.667Z,16.48
2019-06-07T07:17:46.717Z,15.98
2019-06-07T07:22:30.887Z,15.95
2019-06-07T07:27:36.575Z,15.60
2019-06-07T07:32:45.602Z,15.93
2019-06-07T07:37:58.715Z,15.70
2019-06-07T07:42:56.751Z,16.75
2019-06-07T07:48:15.834Z,15.75
2019-06-07T07:53:10.242Z,15.98
2019-06-07T07:58:15.551Z,16.00
2019-06-07T08:03:21.362Z,16.05
2019-06-07T08:08:26.840Z,16.48
2019-06-07T08:13:32.160Z,16.73
2019-06-07T08:18:37.514Z,16.45
2019-06-07T08:23:42.830Z,16.25
2019-06-07T08:28:48.984Z,15.53
2019-06-07T08:33:57.033Z,15.03
2019-06-07T08:39:07.205Z,16.52
2019-06-07T08:44:22.770Z,15.20
2019-06-07T08:49:16.472Z,15.08
2019-06-07T08:54:23.361Z,14.30
2019-06-07T08:59:29.406Z,13.85
2019-06-07T09:04:34.650Z,14.40
2019-06-07T09:09:41.103Z,13.10
2019-06-07T09:14:59.744Z,14.50
2019-06-07T09:19:55.572Z,13.10
2019-06-07T09:25:09.446Z,14.18
2019-06-07T09:30:16.324Z,13.43
2019-06-07T09:35:17.539Z,13.50
2019-06-07T09:40:29.987Z,13.28
2019-06-07T09:45:35.279Z,13.90
2019-06-07T09:50:40.517Z,14.75
2019-06-07T09:55:46.082Z,15.25
2019-06-07T10:00:51.398Z,15.48
2019-06-07T10:05:57.960Z,15.50
2019-06-07T10:11:04.729Z,15.63
2019-06-07T10:16:10.523Z,15.30
2019-06-07T10:21:15.867Z,15.18
2019-06-07T10:26:21.416Z,14.18
2019-06-07T10:31:26.922Z,13.72
2019-06-07T10:36:32.556Z,14.50
2019-06-07T10:41:38.155Z,13.68
2019-06-07T10:46:43.450Z,14.05
2019-06-07T10:51:48.970Z,13.08
2019-06-07T10:56:54.220Z,13.03
2019-06-07T11:01:59.477Z,12.33
2019-06-07T11:07:06.292Z,13.65
2019-06-07T11:12:12.629Z,13.00
2019-06-07T11:17:17.984Z,14.33
2019-06-07T11:22:23.291Z,13.05
2019-06-07T11:27:28.995Z,12.88
2019-06-07T11:32:34.272Z,13.40
2019-06-07T11:37:39.513Z,12.80
2019-06-07T11:42:44.740Z,12.75
2019-06-07T11:47:50.364Z,12.47
2019-06-07T11:52:56.694Z,13.75
2019-06-07T11:58:01.977Z,13.50
2019-06-07T12:03:07.528Z,13.10
2019-06-07T12:08:14.023Z,14.18
2019-06-07T12:13:19.252Z,14.35
2019-06-07T12:18:24.568Z,14.13
2019-06-07T12:23:30.206Z,14.40
2019-06-07T12:28:35.485Z,14.45
2019-06-07T12:33:40.730Z,15.68
2019-06-07T12:38:45.996Z,15.75
2019-06-07T12:43:51.242Z,17.87
2019-06-07T12:48:56.487Z,19.95
2019-06-07T12:54:01.763Z,19.30
2019-06-07T12:59:07.869Z,19.00
2019-06-07T13:04:14.369Z,18.27
2019-06-07T13:09:19.921Z,18.20
2019-06-07T13:14:25.199Z,18.12
2019-06-07T13:19:30.797Z,18.35
2019-06-07T13:24:36.026Z,17.37
2019-06-07T13:29:41.291Z,14.95
2019-06-07T13:34:46.502Z,14.95
2019-06-07T13:39:51.776Z,15.93
2019-06-07T13:44:57.044Z,14.25
2019-06-07T13:50:02.275Z,14.13
2019-06-07T13:55:08.331Z,14.28
2019-06-07T14:00:14.898Z,13.18
2019-06-07T14:05:20.937Z,12.63
2019-06-07T14:10:27.518Z,12.75
2019-06-07T14:15:34.484Z,13.35
2019-06-07T14:20:40.137Z,12.05
2019-06-07T14:25:45.428Z,12.50
2019-06-07T14:30:50.926Z,11.78
2019-06-07T14:35:56.983Z,11.48
2019-06-07T14:41:02.236Z,10.58
2019-06-07T14:46:07.464Z,10.82
2019-06-07T14:51:12.716Z,10.65
2019-06-07T14:56:17.977Z,9.95
2019-06-07T15:01:23.599Z,9.95
2019-06-07T15:06:30.650Z,9.48
2019-06-07T15:11:35.925Z,8.88
2019-06-07T15:16:42.596Z,8.68
2019-06-07T15:21:47.805Z,9.00
2019-06-07T15:26:53.048Z,8.25
2019-06-07T15:31:58.195Z,8.58
2019-06-07T15:37:03.522Z,8.70
2019-06-07T15:42:08.851Z,7.90
2019-06-07T15:47:14.065Z,7.92
2019-06-07T15:52:19.284Z,8.23
2019-06-07T15:57:24.531Z,7.60
2019-06-07T16:02:31.311Z,7.33
2019-06-07T16:07:38.387Z,7.00
2019-06-07T16:12:58.845Z,7.17
2019-06-07T16:17:50.851Z,7.12
2019-06-07T16:22:56.227Z,6.85
2019-06-07T16:28:01.936Z,6.70
2019-06-07T16:33:07.233Z,6.67
2019-06-07T16:38:12.538Z,7.25
2019-06-07T16:43:18.719Z,6.53
2019-06-07T16:48:24.006Z,6.75
2019-06-07T16:53:29.545Z,6.12
2019-06-07T16:58:34.778Z,5.45
2019-06-07T17:03:41.342Z,4.97
2019-06-07T17:08:48.178Z,5.22
2019-06-07T17:13:53.814Z,5.25
2019-06-07T17:18:59.081Z,4.78
2019-06-07T17:24:04.652Z,5.37
2019-06-07T17:29:10.217Z,4.67
2019-06-07T17:34:15.596Z,4.80
2019-06-07T17:39:20.868Z,5.00
2019-06-07T17:44:26.438Z,5.03
2019-06-07T17:49:32.222Z,5.15
2019-06-07T17:54:38.538Z,5.00
2019-06-07T17:59:44.347Z,4.83
2019-06-07T18:04:51.156Z,5.08
2019-06-07T18:09:57.286Z,5.17
2019-06-07T18:15:02.631Z,5.05
2019-06-07T18:20:10.868Z,5.30
2019-06-07T18:25:16.529Z,5.65
2019-06-07T18:30:21.855Z,6.08
2019-06-07T18:35:27.228Z,5.92
2019-06-07T18:40:32.584Z,5.55
2019-06-07T18:45:37.824Z,6.42
2019-06-07T18:50:43.095Z,6.70
2019-06-07T18:55:49.882Z,7.30
2019-06-07T19:00:55.550Z,7.53
2019-06-07T19:06:02.131Z,7.50
2019-06-07T19:11:07.916Z,8.18
2019-06-07T19:16:14.099Z,8.33
2019-06-07T19:21:19.781Z,8.43
2019-06-07T19:26:25.347Z,8.38
2019-06-07T19:31:30.708Z,8.73
2019-06-07T19:36:48.914Z,8.78
2019-06-07T19:41:55.922Z,9.08
2019-06-07T19:47:07.096Z,10.10
2019-06-07T19:52:13.962Z,9.68
2019-06-07T19:57:19.963Z,10.38
2019-06-07T20:02:25.473Z,10.65
2019-06-07T20:07:30.750Z,10.18
2019-06-07T20:12:36.374Z,10.82
2019-06-07T20:17:42.015Z,10.78
2019-06-07T20:22:47.720Z,10.93
2019-06-07T20:27:53.267Z,10.03
2019-06-07T20:32:59.807Z,11.05
2019-06-07T20:38:05.888Z,10.95
2019-06-07T20:43:11.243Z,11.38
2019-06-07T20:48:16.507Z,10.63
2019-06-07T20:53:21.818Z,9.43
2019-06-07T20:58:27.901Z,10.45
2019-06-07T21:03:33.141Z,10.30
2019-06-07T21:08:38.833Z,10.00
2019-06-07T21:13:45.126Z,10.08
2019-06-07T21:18:51.209Z,9.50
2019-06-07T21:23:56.498Z,9.55
2019-06-07T21:29:03.256Z,8.88
2019-06-07T21:34:11.962Z,9.15
2019-06-07T21:39:15.606Z,9.53
2019-06-07T21:44:21.217Z,9.98
2019-06-07T21:49:26.832Z,3.52
2019-06-07T21:54:32.055Z,2.17
2019-06-07T21:59:37.351Z,1.60
2019-06-07T22:04:42.573Z,1.40
2019-06-07T22:09:47.868Z,1.10
2019-06-07T22:14:53.741Z,1.30
2019-06-07T22:19:59.155Z,1.40
2019-06-07T22:25:04.800Z,1.20
2019-06-07T22:30:10.698Z,1.40
2019-06-07T22:35:15.961Z,1.40
2019-06-07T22:40:21.220Z,1.27
2019-06-07T22:45:26.462Z,1.20
2019-06-07T22:50:32.093Z,1.47
2019-06-07T22:55:37.663Z,1.55
2019-06-07T23:00:43.499Z,1.40
2019-06-07T23:05:49.159Z,1.30
2019-06-07T23:10:54.769Z,1.30
2019-06-07T23:16:00.102Z,1.30
2019-06-07T23:21:05.351Z,1.42
2019-06-07T23:26:12.199Z,1.20
2019-06-07T23:31:18.559Z,1.00
2019-06-07T23:36:24.180Z,1.10
2019-06-07T23:41:29.517Z,1.10
2019-06-07T23:46:35.129Z,0.80
2019-06-07T23:51:42.270Z,1.02
2019-06-07T23:56:47.634Z,1.27
